createdAt,value
2023-02-25T00:00:41.011Z,98712.02
2023-02-25T00:01:48.719Z,98702.94
2023-02-25T00:02:49.048Z,98710.02
2023-02-25T00:03:52.708Z,98697.02
2023-02-25T00:04:54.622Z,98711.48
2023-02-25T00:05:56.507Z,98702.94
2023-02-25T00:06:58.788Z,98709.81
2023-02-25T00:08:01.979Z,98703.16
2023-02-25T00:09:04.059Z,98705.34
2023-02-25T00:10:09.012Z,98701.02
2023-02-25T00:11:12.762Z,98701.96
2023-02-25T00:12:16.251Z,98698.41
2023-02-25T00:13:18.738Z,98703.95
2023-02-25T00:14:21.333Z,98700.72
2023-02-25T00:15:23.308Z,98697.27
2023-02-25T00:16:26.088Z,98703.63
2023-02-25T00:17:28.468Z,98699.42
2023-02-25T00:18:30.858Z,98697.34
2023-02-25T00:19:32.766Z,98694.73
2023-02-25T00:20:36.661Z,98698.98
2023-02-25T00:21:38.565Z,98694.44
2023-02-25T00:22:40.445Z,98694.73
2023-02-25T00:23:44.963Z,98692.80
2023-02-25T00:24:46.972Z,98685.97
2023-02-25T00:25:49.302Z,98685.89
2023-02-25T00:26:51.309Z,98687.79
2023-02-25T00:27:53.282Z,98686.27
2023-02-25T00:28:55.408Z,98690.41
2023-02-25T00:29:57.392Z,98684.27
2023-02-25T00:31:00.997Z,98681.72
2023-02-25T00:32:03.316Z,98676.48
2023-02-25T00:33:07.901Z,98683.28
2023-02-25T00:34:09.813Z,98672.02
2023-02-25T00:35:12.012Z,98678.27
2023-02-25T00:36:17.935Z,98682.70
2023-02-25T00:37:19.877Z,98676.42
2023-02-25T00:38:21.922Z,98675.51
2023-02-25T00:39:25.011Z,98672.09
2023-02-25T00:40:29.289Z,98678.05
2023-02-25T00:41:31.296Z,98675.36
2023-02-25T00:42:34.101Z,98670.35
2023-02-25T00:43:37.054Z,98668.34
2023-02-25T00:44:39.216Z,98668.42
2023-02-25T00:45:41.096Z,98666.72
2023-02-25T00:46:43.137Z,98664.10
2023-02-25T00:47:45.156Z,98665.88
2023-02-25T00:48:48.366Z,98663.48
2023-02-25T00:49:50.282Z,98662.89
2023-02-25T00:50:52.294Z,98652.58
2023-02-25T00:51:54.258Z,98652.58
2023-02-25T00:52:56.147Z,98656.79
2023-02-25T00:53:59.399Z,98644.73
2023-02-25T00:55:03.020Z,98660.58
2023-02-25T00:56:07.933Z,98666.56
2023-02-25T00:57:10.042Z,98652.58
2023-02-25T00:58:13.221Z,98649.73
2023-02-25T00:59:15.518Z,98655.04
2023-02-25T01:00:19.150Z,98654.50
2023-02-25T01:01:25.445Z,98649.12
2023-02-25T01:02:28.677Z,98653.41
2023-02-25T01:03:31.246Z,98648.03
2023-02-25T01:04:34.832Z,98656.79
2023-02-25T01:05:42.518Z,98647.34
2023-02-25T01:06:45.288Z,98652.58
2023-02-25T01:07:49.599Z,98642.95
2023-02-25T01:08:52.804Z,98645.78
2023-02-25T01:09:57.593Z,98638.55
2023-02-25T01:11:00.491Z,98638.88
2023-02-25T01:12:03.496Z,98639.64
2023-02-25T01:13:05.404Z,98645.64
2023-02-25T01:14:13.903Z,98636.80
2023-02-25T01:15:15.982Z,98642.19
2023-02-25T01:16:21.648Z,98634.19
2023-02-25T01:17:24.033Z,98635.47
2023-02-25T01:18:26.097Z,98630.81
2023-02-25T01:19:29.021Z,98626.41
2023-02-25T01:20:31.821Z,98633.17
2023-02-25T01:21:39.370Z,98621.03
2023-02-25T01:22:41.420Z,98626.56
2023-02-25T01:23:48.072Z,98619.55
2023-02-25T01:24:50.106Z,98622.70
2023-02-25T01:25:52.145Z,98618.64
2023-02-25T01:26:57.634Z,98618.64
2023-02-25T01:27:59.790Z,98618.41
2023-02-25T01:29:08.176Z,98622.39
2023-02-25T01:30:11.581Z,98615.00
2023-02-25T01:31:18.537Z,98616.78
2023-02-25T01:32:20.826Z,98612.23
2023-02-25T01:33:23.314Z,98613.25
2023-02-25T01:34:26.454Z,98606.63
2023-02-25T01:35:28.356Z,98612.39
2023-02-25T01:36:32.360Z,98603.78
2023-02-25T01:37:34.284Z,98597.79
2023-02-25T01:38:36.174Z,98608.78
2023-02-25T01:39:39.464Z,98599.30
2023-02-25T01:40:41.695Z,98606.55
2023-02-25T01:41:45.166Z,98598.55
2023-02-25T01:42:47.087Z,98598.85
2023-02-25T01:44:09.870Z,98603.17
2023-02-25T01:45:21.849Z,98597.18
2023-02-25T01:46:24.429Z,98605.48
2023-02-25T01:47:30.828Z,98600.41
2023-02-25T01:48:36.196Z,98600.41
2023-02-25T01:49:42.016Z,98590.33
2023-02-25T01:50:50.960Z,98585.32
2023-02-25T01:51:57.379Z,98582.39
2023-02-25T01:53:01.922Z,98593.77
2023-02-25T01:54:07.226Z,98585.70
2023-02-25T01:55:10.504Z,98586.72
2023-02-25T01:56:16.584Z,98586.56
2023-02-25T01:57:20.468Z,98586.00
2023-02-25T01:58:22.933Z,98581.64
2023-02-25T01:59:28.183Z,98585.70
2023-02-25T02:00:32.390Z,98586.72
2023-02-25T02:01:37.745Z,98585.02
2023-02-25T02:02:43.253Z,98573.19
2023-02-25T02:03:46.731Z,98573.72
2023-02-25T02:04:52.757Z,98578.00
2023-02-25T02:06:19.272Z,98584.10
2023-02-25T02:07:22.928Z,98574.55
2023-02-25T02:08:25.845Z,98577.24
2023-02-25T02:09:28.744Z,98571.78
2023-02-25T02:10:30.855Z,98566.31
2023-02-25T02:11:33.723Z,98575.95
2023-02-25T02:12:39.892Z,98570.72
2023-02-25T02:13:45.372Z,98568.02
2023-02-25T02:14:48.567Z,98570.88
2023-02-25T02:16:00.343Z,98557.71
2023-02-25T02:17:18.001Z,98554.46
2023-02-25T02:18:20.923Z,98561.47
2023-02-25T02:19:38.862Z,98564.77
2023-02-25T02:20:47.542Z,98564.53
2023-02-25T02:21:56.317Z,98568.56
2023-02-25T02:23:29.757Z,98568.41
2023-02-25T02:26:29.667Z,98576.09
2023-02-25T02:27:44.306Z,98571.70
2023-02-25T02:29:20.336Z,98577.92
2023-02-25T02:30:32.082Z,98570.88
2023-02-25T02:31:49.974Z,98558.23
2023-02-25T02:32:58.935Z,98566.24
2023-02-25T02:34:22.640Z,98565.48
2023-02-25T02:35:37.729Z,98570.38
2023-02-25T02:36:46.115Z,98570.38
2023-02-25T02:38:01.129Z,98558.70
2023-02-25T02:39:09.838Z,98555.70
2023-02-25T02:40:15.880Z,98561.92
2023-02-25T02:41:24.755Z,98556.45
2023-02-25T02:42:45.505Z,98553.16
2023-02-25T02:44:06.197Z,98557.22
2023-02-25T02:45:14.886Z,98548.08
2023-02-25T02:46:21.315Z,98561.24
2023-02-25T02:47:30.124Z,98554.83
2023-02-25T02:48:36.264Z,98559.30
2023-02-25T02:49:48.006Z,98544.37
2023-02-25T02:50:54.028Z,98536.70
2023-02-25T02:52:02.568Z,98543.30
2023-02-25T02:53:23.019Z,98542.54
2023-02-25T02:54:28.807Z,98538.45
2023-02-25T02:55:40.520Z,98542.70
2023-02-25T02:56:46.076Z,98540.68
2023-02-25T02:57:51.138Z,98538.98
2023-02-25T03:00:13.237Z,98552.03
2023-02-25T03:01:19.124Z,98541.36
2023-02-25T03:02:24.948Z,98533.59
2023-02-25T03:03:37.206Z,98538.66
2023-02-25T03:04:43.139Z,98532.59
2023-02-25T03:05:48.935Z,98538.66
2023-02-25T03:06:54.851Z,98538.30
2023-02-25T03:08:12.471Z,98525.90
2023-02-25T03:09:21.220Z,98521.14
2023-02-25T03:10:23.590Z,98518.41
2023-02-25T03:11:25.955Z,98519.44
2023-02-25T03:12:29.254Z,98524.34
2023-02-25T03:13:31.427Z,98520.35
2023-02-25T03:14:35.615Z,98516.89
2023-02-25T03:15:40.036Z,98520.35
2023-02-25T03:16:57.766Z,98511.90
2023-02-25T03:18:09.126Z,98522.80
2023-02-25T03:19:17.540Z,98530.22
2023-02-25T03:20:26.201Z,98526.38
2023-02-25T03:21:31.961Z,98515.72
2023-02-25T03:22:37.650Z,98514.95
2023-02-25T03:23:44.595Z,98512.19
2023-02-25T03:25:07.345Z,98515.55
2023-02-25T03:26:28.993Z,98509.41
2023-02-25T03:27:34.698Z,98512.94
2023-02-25T03:28:37.773Z,98507.86
2023-02-25T03:29:39.890Z,98513.88
2023-02-25T03:30:48.359Z,98505.09
2023-02-25T03:31:55.357Z,98508.65
2023-02-25T03:33:19.577Z,98513.09
2023-02-25T03:34:25.420Z,98512.19
2023-02-25T03:35:29.648Z,98519.52
2023-02-25T03:36:44.454Z,98511.34
2023-02-25T03:37:50.120Z,98509.16
2023-02-25T03:38:56.376Z,98506.47
2023-02-25T03:40:02.174Z,98504.57
2023-02-25T03:41:07.859Z,98504.57
2023-02-25T03:42:13.019Z,98511.27
2023-02-25T03:43:18.939Z,98502.91
2023-02-25T03:44:24.730Z,98503.26
2023-02-25T03:45:27.177Z,98501.04
2023-02-25T03:46:32.432Z,98496.05
2023-02-25T03:47:36.819Z,98500.88
2023-02-25T03:48:40.877Z,98488.52
2023-02-25T03:49:49.413Z,98485.50
2023-02-25T03:50:58.241Z,98481.70
2023-02-25T03:52:03.373Z,98487.20
2023-02-25T03:53:06.333Z,98480.03
2023-02-25T03:54:08.475Z,98480.86
2023-02-25T03:55:12.464Z,98494.86
2023-02-25T03:56:15.645Z,98492.24
2023-02-25T03:57:19.170Z,98492.24
2023-02-25T03:58:21.592Z,98494.78
2023-02-25T03:59:23.475Z,98496.48
2023-02-25T04:01:40.354Z,98497.86
2023-02-25T04:02:45.467Z,98501.88
2023-02-25T04:03:47.567Z,98500.28
2023-02-25T04:04:49.840Z,98500.88
2023-02-25T04:05:51.867Z,98497.16
2023-02-25T04:06:53.893Z,98504.25
2023-02-25T04:08:00.239Z,98494.27
2023-02-25T04:09:02.383Z,98500.88
2023-02-25T04:10:07.018Z,98497.67
2023-02-25T04:11:08.989Z,98496.48
2023-02-25T04:12:12.197Z,98493.86
2023-02-25T04:13:15.876Z,98484.94
2023-02-25T04:14:18.336Z,98482.48
2023-02-25T04:15:20.462Z,98490.92
2023-02-25T04:16:23.073Z,98482.99
2023-02-25T04:17:25.985Z,98486.02
2023-02-25T04:18:28.019Z,98487.36
2023-02-25T04:19:32.527Z,98475.47
2023-02-25T04:20:34.825Z,98482.48
2023-02-25T04:21:37.528Z,98472.42
2023-02-25T04:22:40.333Z,98475.47
2023-02-25T04:23:42.228Z,98481.61
2023-02-25T04:24:44.548Z,98475.39
2023-02-25T04:25:46.743Z,98470.80
2023-02-25T04:26:49.148Z,98467.70
2023-02-25T04:27:51.182Z,98468.80
2023-02-25T04:28:53.713Z,98468.02
2023-02-25T04:29:55.700Z,98465.08
2023-02-25T04:30:58.086Z,98461.38
2023-02-25T04:32:00.661Z,98463.05
2023-02-25T04:33:03.531Z,98457.98
2023-02-25T04:34:05.523Z,98462.89
2023-02-25T04:35:08.510Z,98454.78
2023-02-25T04:36:29.570Z,98447.01
2023-02-25T04:37:31.544Z,98456.98
2023-02-25T04:38:35.573Z,98461.03
2023-02-25T04:39:37.500Z,98460.01
2023-02-25T04:40:40.141Z,98459.17
2023-02-25T04:41:42.572Z,98460.95
2023-02-25T04:42:44.955Z,98466.19
2023-02-25T04:43:46.876Z,98462.78
2023-02-25T04:44:49.004Z,98458.84
2023-02-25T04:45:53.991Z,98461.55
2023-02-25T04:46:57.071Z,98458.34
2023-02-25T04:47:59.100Z,98459.52
2023-02-25T04:49:01.647Z,98456.98
2023-02-25T04:50:06.664Z,98454.94
2023-02-25T04:51:08.737Z,98449.22
2023-02-25T04:52:12.391Z,98445.44
2023-02-25T04:53:14.303Z,98438.33
2023-02-25T04:54:17.593Z,98438.91
2023-02-25T04:55:20.128Z,98433.84
2023-02-25T04:56:23.314Z,98435.22
2023-02-25T04:57:25.997Z,98438.75
2023-02-25T04:58:27.919Z,98438.16
2023-02-25T04:59:29.805Z,98440.45
2023-02-25T05:00:31.901Z,98450.38
2023-02-25T05:01:33.970Z,98443.98
2023-02-25T05:02:36.051Z,98444.47
2023-02-25T05:03:40.115Z,98448.55
2023-02-25T05:04:42.636Z,98445.84
2023-02-25T05:05:44.807Z,98445.84
2023-02-25T05:06:47.069Z,98437.83
2023-02-25T05:07:48.950Z,98443.66
2023-02-25T05:08:50.993Z,98433.27
2023-02-25T05:09:52.877Z,98440.88
2023-02-25T05:10:55.548Z,98439.91
2023-02-25T05:11:57.674Z,98438.75
2023-02-25T05:12:59.550Z,98426.09
2023-02-25T05:14:01.949Z,98421.19
2023-02-25T05:15:05.811Z,98426.09
2023-02-25T05:16:11.393Z,98429.30
2023-02-25T05:17:13.435Z,98423.22
2023-02-25T05:18:16.182Z,98424.84
2023-02-25T05:20:41.213Z,98413.59
2023-02-25T05:21:44.586Z,98423.47
2023-02-25T05:22:46.974Z,98422.72
2023-02-25T05:23:51.202Z,98423.55
2023-02-25T05:24:53.448Z,98429.54
2023-02-25T05:25:55.522Z,98425.92
2023-02-25T05:26:57.500Z,98440.63
2023-02-25T05:27:59.608Z,98433.19
2023-02-25T05:29:04.307Z,98435.22
2023-02-25T05:30:08.209Z,98434.00
2023-02-25T05:31:13.113Z,98449.14
2023-02-25T05:32:15.708Z,98441.28
2023-02-25T05:33:18.485Z,98449.89
2023-02-25T05:34:20.730Z,98438.24
2023-02-25T05:35:22.937Z,98434.27
2023-02-25T05:36:27.952Z,98439.83
2023-02-25T05:37:31.963Z,98441.37
2023-02-25T05:38:35.589Z,98444.66
2023-02-25T05:39:38.023Z,98444.90
2023-02-25T05:40:40.201Z,98442.91
2023-02-25T05:41:42.889Z,98437.47
2023-02-25T05:42:45.244Z,98437.59
2023-02-25T05:43:47.126Z,98439.77
2023-02-25T05:44:49.334Z,98442.91
2023-02-25T05:45:55.703Z,98440.28
2023-02-25T05:46:58.145Z,98435.70
2023-02-25T05:48:01.364Z,98441.37
2023-02-25T05:49:03.268Z,98438.00
2023-02-25T05:50:06.408Z,98441.37
2023-02-25T05:51:11.832Z,98437.47
2023-02-25T05:52:14.209Z,98432.94
2023-02-25T05:53:17.420Z,98427.95
2023-02-25T05:54:19.338Z,98436.23
2023-02-25T05:55:21.246Z,98427.95
2023-02-25T05:56:25.508Z,98430.57
2023-02-25T05:57:29.293Z,98436.97
2023-02-25T05:58:31.445Z,98436.22
2023-02-25T05:59:33.576Z,98438.08
2023-02-25T06:00:36.975Z,98436.97
2023-02-25T06:01:38.943Z,98434.59
2023-02-25T06:02:41.735Z,98439.17
2023-02-25T06:03:45.864Z,98445.33
2023-02-25T06:04:47.803Z,98438.08
2023-02-25T06:05:49.686Z,98435.30
2023-02-25T06:06:51.692Z,98442.12
2023-02-25T06:07:53.551Z,98438.26
2023-02-25T06:08:55.971Z,98438.50
2023-02-25T06:09:59.465Z,98432.23
2023-02-25T06:11:03.584Z,98424.58
2023-02-25T06:12:06.528Z,98436.30
2023-02-25T06:13:12.183Z,98426.42
2023-02-25T06:14:15.479Z,98427.95
2023-02-25T06:15:18.036Z,98415.28
2023-02-25T06:16:21.638Z,98409.05
2023-02-25T06:17:24.279Z,98395.02
2023-02-25T06:18:26.354Z,98415.11
2023-02-25T06:19:28.260Z,98410.88
2023-02-25T06:20:30.666Z,98413.75
2023-02-25T06:21:35.196Z,98412.09
2023-02-25T06:22:37.218Z,98409.55
2023-02-25T06:23:41.632Z,98410.22
2023-02-25T06:24:44.057Z,98404.48
2023-02-25T06:25:45.949Z,98407.69
2023-02-25T06:26:48.769Z,98404.31
2023-02-25T06:27:50.680Z,98398.05
2023-02-25T06:28:53.890Z,98397.38
2023-02-25T06:29:55.811Z,98393.50
2023-02-25T06:30:58.154Z,98381.52
2023-02-25T06:32:00.403Z,98381.52
2023-02-25T06:33:03.798Z,98388.44
2023-02-25T06:34:06.780Z,98377.10
2023-02-25T06:35:09.309Z,98379.72
2023-02-25T06:36:13.119Z,98375.76
2023-02-25T06:37:16.319Z,98371.87
2023-02-25T06:38:19.136Z,98368.24
2023-02-25T06:39:21.057Z,98365.11
2023-02-25T06:40:23.267Z,98363.33
2023-02-25T06:41:25.997Z,98359.03
2023-02-25T06:42:28.021Z,98363.92
2023-02-25T06:43:30.130Z,98362.09
2023-02-25T06:44:32.032Z,98360.56
2023-02-25T06:45:36.128Z,98359.03
2023-02-25T06:46:38.255Z,98357.34
2023-02-25T06:47:40.254Z,98351.84
2023-02-25T06:48:42.130Z,98358.66
2023-02-25T06:49:44.037Z,98353.59
2023-02-25T06:50:46.023Z,98348.36
2023-02-25T06:51:48.502Z,98350.38
2023-02-25T06:52:50.512Z,98343.95
2023-02-25T06:53:52.405Z,98336.67
2023-02-25T06:54:54.417Z,98347.76
2023-02-25T06:55:58.288Z,98347.80
2023-02-25T06:57:01.535Z,98342.25
2023-02-25T06:58:03.436Z,98347.67
2023-02-25T06:59:05.451Z,98338.02
2023-02-25T07:00:09.862Z,98332.61
2023-02-25T07:01:15.800Z,98333.48
2023-02-25T07:02:18.483Z,98335.45
2023-02-25T07:03:20.376Z,98341.91
2023-02-25T07:04:22.298Z,98351.52
2023-02-25T07:05:24.296Z,98348.63
2023-02-25T07:06:26.683Z,98352.03
2023-02-25T07:07:28.675Z,98350.98
2023-02-25T07:08:31.025Z,98348.58
2023-02-25T07:09:33.308Z,98344.86
2023-02-25T07:10:35.413Z,98331.02
2023-02-25T07:11:38.291Z,98330.03
2023-02-25T07:12:40.194Z,98337.80
2023-02-25T07:13:43.041Z,98336.13
2023-02-25T07:14:46.446Z,98335.75
2023-02-25T07:15:48.447Z,98336.52
2023-02-25T07:16:51.228Z,98338.97
2023-02-25T07:17:55.531Z,98333.33
2023-02-25T07:18:59.151Z,98329.61
2023-02-25T07:20:01.168Z,98324.37
2023-02-25T07:21:03.996Z,98329.70
2023-02-25T07:22:08.256Z,98327.55
2023-02-25T07:23:10.249Z,98334.96
2023-02-25T07:24:12.895Z,98330.08
2023-02-25T07:25:15.691Z,98330.08
2023-02-25T07:26:17.876Z,98329.16
2023-02-25T07:27:19.974Z,98335.57
2023-02-25T07:28:22.224Z,98327.91
2023-02-25T07:29:24.806Z,98332.32
2023-02-25T07:30:27.084Z,98329.41
2023-02-25T07:31:29.393Z,98337.56
2023-02-25T07:32:31.803Z,98329.14
2023-02-25T07:33:34.272Z,98331.02
2023-02-25T07:34:37.248Z,98326.25
2023-02-25T07:35:39.209Z,98326.42
2023-02-25T07:36:41.393Z,98326.54
2023-02-25T07:37:43.279Z,98320.93
2023-02-25T07:38:46.242Z,98319.13
2023-02-25T07:39:48.253Z,98322.47
2023-02-25T07:40:51.651Z,98319.48
2023-02-25T07:41:54.986Z,98310.16
2023-02-25T07:42:56.884Z,98316.96
2023-02-25T07:43:58.874Z,98319.78
2023-02-25T07:45:02.245Z,98317.81
2023-02-25T07:46:05.127Z,98313.98
2023-02-25T07:47:07.365Z,98309.02
2023-02-25T07:48:09.538Z,98308.20
2023-02-25T07:49:11.824Z,98303.42
2023-02-25T07:50:14.106Z,98300.52
2023-02-25T07:51:19.188Z,98292.19
2023-02-25T07:52:21.264Z,98304.43
2023-02-25T07:53:23.226Z,98301.34
2023-02-25T07:54:25.158Z,98303.31
2023-02-25T07:55:27.363Z,98302.17
2023-02-25T07:56:31.227Z,98299.73
2023-02-25T07:57:33.345Z,98293.47
2023-02-25T07:58:35.967Z,98296.73
2023-02-25T07:59:38.318Z,98294.12
2023-02-25T08:00:41.006Z,98289.16
2023-02-25T08:01:43.320Z,98292.17
2023-02-25T08:02:45.360Z,98288.84
2023-02-25T08:03:48.097Z,98295.45
2023-02-25T08:04:51.574Z,98286.16
2023-02-25T08:05:53.850Z,98281.36
2023-02-25T08:06:56.041Z,98283.95
2023-02-25T08:08:00.899Z,98290.64
2023-02-25T08:10:17.355Z,98284.84
2023-02-25T08:11:21.763Z,98293.36
2023-02-25T08:12:23.854Z,98298.12
2023-02-25T08:13:25.996Z,98285.46
2023-02-25T08:14:28.052Z,98285.27
2023-02-25T08:15:29.914Z,98275.06
2023-02-25T08:16:33.016Z,98272.24
2023-02-25T08:17:34.953Z,98265.69
2023-02-25T08:18:37.533Z,98275.89
2023-02-25T08:19:40.252Z,98276.66
2023-02-25T08:20:47.048Z,98271.41
2023-02-25T08:21:49.493Z,98276.85
2023-02-25T08:22:51.387Z,98271.80
2023-02-25T08:23:53.891Z,98268.50
2023-02-25T08:24:55.777Z,98262.77
2023-02-25T08:25:58.775Z,98261.75
2023-02-25T08:27:00.809Z,98260.11
2023-02-25T08:28:04.119Z,98273.88
2023-02-25T08:29:07.189Z,98263.25
2023-02-25T08:30:11.497Z,98273.08
2023-02-25T08:31:14.771Z,98265.36
2023-02-25T08:32:17.563Z,98262.34
2023-02-25T08:33:20.884Z,98263.55
2023-02-25T08:34:23.052Z,98273.03
2023-02-25T08:35:25.566Z,98273.08
2023-02-25T08:36:30.075Z,98272.69
2023-02-25T08:37:32.000Z,98270.99
2023-02-25T08:38:34.498Z,98275.12
2023-02-25T08:39:37.642Z,98270.06
2023-02-25T08:40:40.892Z,98271.72
2023-02-25T08:41:43.461Z,98266.21
2023-02-25T08:42:45.903Z,98259.80
2023-02-25T08:43:53.296Z,98250.16
2023-02-25T08:44:55.403Z,98258.09
2023-02-25T08:45:57.289Z,98256.00
2023-02-25T08:46:59.639Z,98256.23
2023-02-25T08:48:01.679Z,98254.94
2023-02-25T08:49:04.469Z,98258.92
2023-02-25T08:50:08.261Z,98249.49
2023-02-25T08:51:10.702Z,98242.58
2023-02-25T08:52:13.392Z,98250.02
2023-02-25T08:53:15.599Z,98249.49
2023-02-25T08:54:17.690Z,98242.54
2023-02-25T08:55:19.963Z,98249.75
2023-02-25T08:56:22.048Z,98237.52
2023-02-25T08:57:24.205Z,98242.78
2023-02-25T08:58:26.332Z,98238.98
2023-02-25T08:59:28.477Z,98240.02
2023-02-25T09:00:30.968Z,98233.94
2023-02-25T09:01:32.941Z,98223.11
2023-02-25T09:02:35.536Z,98228.41
2023-02-25T09:03:39.032Z,98229.42
2023-02-25T09:04:41.117Z,98224.09
2023-02-25T09:05:43.121Z,98220.20
2023-02-25T09:06:46.970Z,98216.04
2023-02-25T09:07:49.510Z,98222.02
2023-02-25T09:08:53.156Z,98215.91
2023-02-25T09:09:59.048Z,98211.52
2023-02-25T09:11:04.845Z,98213.94
2023-02-25T09:12:07.433Z,98206.27
2023-02-25T09:13:09.337Z,98204.16
2023-02-25T09:14:11.519Z,98201.53
2023-02-25T09:15:14.706Z,98200.40
2023-02-25T09:16:17.034Z,98201.64
2023-02-25T09:17:19.261Z,98196.78
2023-02-25T09:18:21.259Z,98193.42
2023-02-25T09:19:23.201Z,98185.36
2023-02-25T09:20:25.304Z,98185.88
2023-02-25T09:21:27.450Z,98191.45
2023-02-25T09:22:29.451Z,98189.66
2023-02-25T09:23:32.556Z,98186.09
2023-02-25T09:24:35.569Z,98189.23
2023-02-25T09:25:38.399Z,98175.88
2023-02-25T09:26:40.743Z,98179.78
2023-02-25T09:27:42.756Z,98170.13
2023-02-25T09:28:45.097Z,98168.64
2023-02-25T09:29:47.239Z,98165.48
2023-02-25T09:30:50.446Z,98165.06
2023-02-25T09:31:53.534Z,98164.44
2023-02-25T09:32:56.052Z,98165.78
2023-02-25T09:33:58.672Z,98166.84
2023-02-25T09:35:01.518Z,98158.14
2023-02-25T09:36:12.823Z,98157.46
2023-02-25T09:37:16.442Z,98163.37
2023-02-25T09:38:18.358Z,98162.14
2023-02-25T09:39:20.249Z,98161.64
2023-02-25T09:40:22.775Z,98154.47
2023-02-25T09:41:28.744Z,98154.47
2023-02-25T09:42:57.382Z,98147.55
2023-02-25T09:44:13.070Z,98147.26
2023-02-25T09:45:18.244Z,98138.12
2023-02-25T09:46:20.581Z,98131.02
2023-02-25T09:47:43.203Z,98137.81
2023-02-25T09:48:51.837Z,98127.07
2023-02-25T09:50:02.023Z,98117.32
2023-02-25T09:51:16.765Z,98118.95
2023-02-25T09:52:39.718Z,98105.97
2023-02-25T09:53:48.123Z,98105.97
2023-02-25T09:55:09.680Z,98108.93
2023-02-25T09:56:15.891Z,98104.66
2023-02-25T09:57:20.178Z,98106.34
2023-02-25T09:58:41.361Z,98101.14
2023-02-25T09:59:43.893Z,98097.73
2023-02-25T10:01:08.268Z,98092.02
2023-02-25T10:02:40.095Z,98080.48
2023-02-25T10:03:59.048Z,98080.48
2023-02-25T10:05:21.596Z,98082.55
2023-02-25T10:06:37.105Z,98079.53
2023-02-25T10:08:04.131Z,98079.53
2023-02-25T10:09:27.844Z,98087.43
2023-02-25T10:11:01.677Z,98073.30
2023-02-25T10:12:18.353Z,98075.59
2023-02-25T10:13:43.961Z,98069.42
2023-02-25T10:15:11.799Z,98065.62
2023-02-25T10:16:20.987Z,98065.62
2023-02-25T10:18:00.259Z,98057.58
2023-02-25T10:19:18.408Z,98056.88
2023-02-25T10:20:48.311Z,98052.38
2023-02-25T10:22:05.819Z,98031.05
2023-02-25T10:23:32.440Z,98045.32
2023-02-25T10:24:43.959Z,98047.38
2023-02-25T10:25:50.735Z,98033.48
2023-02-25T10:28:16.606Z,98024.14
2023-02-25T10:29:31.657Z,98025.20
2023-02-25T10:30:55.796Z,98020.31
2023-02-25T10:32:00.160Z,98029.88
2023-02-25T10:33:09.291Z,98021.61
2023-02-25T10:34:23.504Z,98023.89
2023-02-25T10:35:28.365Z,98022.21
2023-02-25T10:36:34.246Z,98020.06
2023-02-25T10:37:37.060Z,98026.41
2023-02-25T10:38:45.871Z,98029.86
2023-02-25T10:39:50.664Z,98018.96
2023-02-25T10:40:55.985Z,98026.41
2023-02-25T10:41:58.261Z,98020.65
2023-02-25T10:43:05.152Z,98012.84
2023-02-25T10:44:10.965Z,98007.69
2023-02-25T10:45:29.351Z,98004.45
2023-02-25T10:46:44.217Z,98002.27
2023-02-25T10:47:50.542Z,97994.73
2023-02-25T10:49:16.393Z,97985.96
2023-02-25T10:50:27.547Z,97985.96
2023-02-25T10:51:27.319Z,97989.27
2023-02-25T10:52:29.336Z,97982.91
2023-02-25T10:53:33.237Z,97976.08
2023-02-25T10:54:52.435Z,97980.86
2023-02-25T10:55:54.627Z,97980.36
2023-02-25T10:57:00.605Z,97972.27
2023-02-25T10:58:04.056Z,97969.38
2023-02-25T10:59:10.054Z,97966.73
2023-02-25T11:00:31.346Z,97953.42
2023-02-25T11:01:42.880Z,97963.95
2023-02-25T11:02:46.981Z,97948.04
2023-02-25T11:03:55.896Z,97954.59
2023-02-25T11:04:58.141Z,97958.34
2023-02-25T11:06:12.734Z,97949.36
2023-02-25T11:07:36.581Z,97948.15
2023-02-25T11:08:39.630Z,97942.34
2023-02-25T11:09:44.626Z,97930.14
2023-02-25T11:11:07.948Z,97929.23
2023-02-25T11:12:13.515Z,97925.89
2023-02-25T11:13:19.807Z,97930.14
2023-02-25T11:14:34.577Z,97922.88
2023-02-25T11:15:46.566Z,97914.69
2023-02-25T11:16:44.224Z,97911.39
2023-02-25T11:17:46.405Z,97903.50
2023-02-25T11:18:54.894Z,97901.95
2023-02-25T11:20:01.866Z,97914.16
2023-02-25T11:22:23.886Z,97916.80
2023-02-25T11:23:32.678Z,97936.94
2023-02-25T11:24:37.862Z,97945.42
2023-02-25T11:25:44.015Z,97934.03
2023-02-25T11:26:49.452Z,97930.80
2023-02-25T11:27:54.845Z,97924.42
2023-02-25T11:29:00.527Z,97943.74
2023-02-25T11:30:15.620Z,97926.63
2023-02-25T11:31:21.582Z,97911.09
2023-02-25T11:32:24.923Z,97902.91
2023-02-25T11:33:30.792Z,97902.91
2023-02-25T11:34:36.245Z,97903.86
2023-02-25T11:35:39.886Z,97898.05
2023-02-25T11:36:42.187Z,97890.39
2023-02-25T11:37:45.855Z,97893.60
2023-02-25T11:38:49.787Z,97891.09
2023-02-25T11:39:54.474Z,97893.47
2023-02-25T11:40:58.155Z,97886.14
2023-02-25T11:42:20.469Z,97888.91
2023-02-25T11:43:39.617Z,97883.89
2023-02-25T11:44:44.454Z,97887.75
2023-02-25T11:45:50.133Z,97890.27
2023-02-25T11:47:02.624Z,97886.40
2023-02-25T11:48:08.058Z,97882.20
2023-02-25T11:49:13.731Z,97891.09
2023-02-25T11:50:25.761Z,97889.44
2023-02-25T11:51:34.261Z,97889.70
2023-02-25T11:52:58.383Z,97879.56
2023-02-25T11:54:19.506Z,97876.39
2023-02-25T11:56:00.418Z,97873.06
2023-02-25T11:57:18.099Z,97871.22
2023-02-25T11:58:23.975Z,97875.37
2023-02-25T11:59:35.804Z,97866.89
2023-02-25T12:00:47.554Z,97867.19
2023-02-25T12:01:59.450Z,97873.89
2023-02-25T12:03:08.240Z,97870.02
2023-02-25T12:04:29.466Z,97868.44
2023-02-25T12:05:50.562Z,97864.14
2023-02-25T12:06:57.855Z,97867.52
2023-02-25T12:08:15.679Z,97869.03
2023-02-25T12:09:55.783Z,97865.30
2023-02-25T12:11:27.392Z,97864.17
2023-02-25T12:12:33.215Z,97865.86
2023-02-25T12:13:45.520Z,97878.69
2023-02-25T12:15:00.777Z,97862.27
2023-02-25T12:17:37.977Z,97867.29
2023-02-25T12:19:15.673Z,97866.14
2023-02-25T12:20:41.647Z,97858.33
2023-02-25T12:21:47.335Z,97863.08
2023-02-25T12:22:58.825Z,97856.56
2023-02-25T12:24:22.820Z,97867.41
2023-02-25T12:25:57.446Z,97869.20
2023-02-25T12:27:23.217Z,97860.84
2023-02-25T12:28:55.132Z,97865.61
2023-02-25T12:30:15.759Z,97862.27
2023-02-25T12:31:43.197Z,97862.13
2023-02-25T12:33:14.415Z,97855.80
2023-02-25T12:34:25.497Z,97851.66
2023-02-25T12:35:39.780Z,97853.16
2023-02-25T12:36:54.885Z,97853.55
2023-02-25T12:38:34.048Z,97852.99
2023-02-25T12:40:01.525Z,97856.86
2023-02-25T12:41:15.970Z,97850.98
2023-02-25T12:42:44.546Z,97849.03
2023-02-25T12:44:05.614Z,97834.84
2023-02-25T12:45:21.748Z,97845.39
2023-02-25T12:46:44.370Z,97845.39
2023-02-25T12:47:53.322Z,97848.17
2023-02-25T12:49:27.924Z,97852.03
2023-02-25T12:51:07.432Z,97849.65
2023-02-25T12:52:17.530Z,97851.28
2023-02-25T12:53:38.464Z,97849.34
2023-02-25T12:54:56.593Z,97848.56
2023-02-25T12:56:17.241Z,97849.21
2023-02-25T12:57:39.794Z,97843.75
2023-02-25T12:59:09.662Z,97841.68
2023-02-25T13:00:43.169Z,97841.30
2023-02-25T13:01:58.136Z,97850.33
2023-02-25T13:03:23.733Z,97845.05
2023-02-25T13:04:35.171Z,97841.42
2023-02-25T13:05:44.887Z,97836.45
2023-02-25T13:06:56.532Z,97833.25
2023-02-25T13:08:35.976Z,97840.34
2023-02-25T13:10:04.731Z,97833.95
2023-02-25T13:11:10.608Z,97829.66
2023-02-25T13:12:33.510Z,97831.86
2023-02-25T13:13:51.502Z,97832.81